Time;durP1;ratioP1;P1;durP2;ratioP2;P2;SDS_P1;SDS_P2;PMS_P1;PMS_P2;Temp;Humidity;BMP_temperature;BMP_pressure;BME280_temperature;BME280_humidity;BME280_pressure;Samples;Min_cycle;Max_cycle;Signal;HPM_P1;HPM_P2
2022/11/27 00:01:22;;;;;;;26.33;17.60;;;7.40;99.90;;;;;;5073164;28;20020;-81
2022/11/27 00:03:48;;;;;;;29.58;18.40;;;7.00;99.90;;;;;;5075884;28;20052;-81
2022/11/27 00:06:17;;;;;;;29.40;19.15;;;7.00;99.90;;;;;;5076107;28;20021;-81
2022/11/27 00:08:44;;;;;;;28.15;18.92;;;7.00;99.90;;;;;;5075703;28;20036;-81
2022/11/27 00:11:15;;;;;;;32.67;18.75;;;7.00;99.90;;;;;;5075580;28;20025;-81
2022/11/27 00:13:41;;;;;;;29.27;18.67;;;7.40;99.90;;;;;;5075703;28;20031;-81
2022/11/27 00:16:08;;;;;;;30.67;19.40;;;7.20;99.90;;;;;;5075716;28;20473;-81
2022/11/27 00:18:35;;;;;;;31.00;19.52;;;7.40;99.90;;;;;;5061130;28;20029;-81
2022/11/27 00:21:05;;;;;;;24.52;17.65;;;6.90;99.90;;;;;;5055601;28;20049;-81
2022/11/27 00:23:33;;;;;;;28.77;18.23;;;7.00;99.90;;;;;;5055152;28;20025;-81
2022/11/27 00:25:58;;;;;;;25.27;17.60;;;6.90;99.90;;;;;;5054172;28;20155;-81
2022/11/27 00:28:24;;;;;;;27.52;18.00;;;7.00;99.90;;;;;;5055486;28;20108;-81
2022/11/27 00:30:50;;;;;;;26.42;17.83;;;7.00;99.90;;;;;;5055426;28;20708;-81
2022/11/27 00:33:15;;;;;;;26.95;17.85;;;7.00;99.90;;;;;;5065382;28;20060;-81
2022/11/27 00:35:41;;;;;;;25.98;18.23;;;7.00;99.90;;;;;;5075188;28;20085;-81
2022/11/27 00:38:07;;;;;;;28.15;17.88;;;7.00;99.90;;;;;;5074897;28;20026;-81
2022/11/27 00:40:33;;;;;;;27.20;18.65;;;7.00;99.90;;;;;;5075728;28;20496;-81
2022/11/27 00:43:00;;;;;;;26.30;18.42;;;6.90;99.90;;;;;;5091191;28;20024;-81
2022/11/27 00:45:26;;;;;;;25.60;17.50;;;7.10;99.90;;;;;;5075017;28;20021;-81
2022/11/27 00:47:52;;;;;;;25.02;18.00;;;6.70;99.90;;;;;;5075076;28;20468;-81
2022/11/27 00:50:17;;;;;;;27.10;17.90;;;6.60;99.90;;;;;;5075076;28;20066;-81
2022/11/27 00:52:43;;;;;;;31.42;18.30;;;6.60;99.90;;;;;;5073411;28;20123;-81
2022/11/27 00:55:09;;;;;;;27.38;17.92;;;6.40;99.90;;;;;;5074688;28;20073;-81
2022/11/27 00:57:34;;;;;;;28.10;18.10;;;6.30;99.90;;;;;;5075315;28;20400;-82
2022/11/27 01:00:00;;;;;;;27.42;17.20;;;6.10;99.90;;;;;;5074843;28;20141;-81
2022/11/27 01:02:26;;;;;;;27.45;17.23;;;5.90;99.90;;;;;;5074603;28;20602;-81
2022/11/27 01:04:51;;;;;;;24.98;16.48;;;5.60;99.90;;;;;;5076568;28;20047;-81
2022/11/27 01:07:17;;;;;;;26.67;16.58;;;5.70;99.90;;;;;;5074782;28;20020;-81
2022/11/27 01:09:42;;;;;;;26.13;18.20;;;5.80;99.90;;;;;;5074455;28;20029;-82
2022/11/27 01:12:08;;;;;;;27.55;17.85;;;5.70;99.90;;;;;;5073410;28;20024;-81
2022/11/27 01:14:34;;;;;;;26.95;17.55;;;5.70;99.90;;;;;;5073963;28;20040;-81
2022/11/27 01:17:00;;;;;;;27.73;18.45;;;5.70;99.90;;;;;;5074612;28;20504;-81
2022/11/27 01:19:26;;;;;;;26.45;18.45;;;5.60;99.90;;;;;;5054407;28;20099;-81
2022/11/27 01:21:51;;;;;;;24.42;17.27;;;5.50;99.90;;;;;;5054101;28;20025;-81
2022/11/27 01:24:17;;;;;;;25.73;16.88;;;5.60;99.90;;;;;;5054353;28;20067;-81
2022/11/27 01:26:43;;;;;;;26.52;17.55;;;5.50;99.90;;;;;;5054795;28;20079;-81
2022/11/27 01:29:09;;;;;;;30.02;18.45;;;5.80;99.90;;;;;;5054288;28;20566;-81
2022/11/27 01:31:35;;;;;;;27.63;18.17;;;5.60;99.90;;;;;;5054214;28;20052;-81
2022/11/27 01:34:04;;;;;;;29.40;17.88;;;5.70;99.90;;;;;;5070473;28;20066;-81
2022/11/27 01:36:31;;;;;;;28.58;18.25;;;5.60;99.90;;;;;;5073815;28;20024;-81
2022/11/27 01:38:56;;;;;;;29.65;19.08;;;5.40;99.90;;;;;;5074247;28;20047;-81
2022/11/27 01:41:22;;;;;;;28.95;17.52;;;5.80;99.90;;;;;;5074953;28;20017;-81
2022/11/27 01:43:57;;;;;;;30.40;19.38;;;5.40;99.90;;;;;;5074124;28;20506;-81
2022/11/27 01:46:26;;;;;;;26.48;17.70;;;6.10;99.90;;;;;;5074137;28;20078;-81
2022/11/27 01:48:55;;;;;;;29.17;18.20;;;5.50;99.90;;;;;;5073992;28;20032;-81
2022/11/27 01:51:21;;;;;;;29.92;18.48;;;5.50;99.90;;;;;;5073862;28;20028;-81
2022/11/27 01:53:48;;;;;;;28.23;17.85;;;6.00;99.90;;;;;;5073890;28;20096;-81
2022/11/27 01:56:14;;;;;;;26.05;16.80;;;5.70;99.90;;;;;;5073826;28;20071;-81
2022/11/27 01:58:40;;;;;;;25.95;16.20;;;6.00;99.90;;;;;;5073793;28;20401;-81
2022/11/27 02:01:06;;;;;;;25.40;16.88;;;5.70;99.90;;;;;;5073565;28;20025;-81
2022/11/27 02:03:32;;;;;;;25.98;17.33;;;5.60;99.90;;;;;;5073549;28;20059;-82
2022/11/27 02:05:58;;;;;;;25.60;17.05;;;5.30;99.90;;;;;;5073440;28;20028;-81
2022/11/27 02:08:24;;;;;;;27.10;17.08;;;5.10;99.90;;;;;;5072179;28;20108;-81
2022/11/27 02:11:22;;;;;;;27.83;17.50;;;5.00;99.90;;;;;;5072242;28;20476;-81
2022/11/27 02:14:10;;;;;;;26.67;16.80;;;5.00;99.90;;;;;;5073393;28;20445;-81
2022/11/27 02:16:48;;;;;;;25.58;16.90;;;4.90;99.90;;;;;;5073656;28;20021;-81
2022/11/27 02:19:51;;;;;;;24.85;16.40;;;5.00;99.90;;;;;;5054448;28;20480;-81
2022/11/27 02:22:49;;;;;;;25.95;16.80;;;5.10;99.90;;;;;;5053432;28;20025;-82
2022/11/27 02:25:20;;;;;;;27.05;17.10;;;5.00;99.90;;;;;;5010200;28;20121;-81
2022/11/27 02:28:20;;;;;;;27.67;17.67;;;5.10;99.90;;;;;;5011229;28;20034;-81
2022/11/27 02:30:55;;;;;;;26.33;17.23;;;5.10;99.90;;;;;;4952922;28;20143;-81
2022/11/27 02:33:22;;;;;;;27.30;17.10;;;5.10;99.90;;;;;;4962825;28;20149;-82
2022/11/27 02:35:54;;;;;;;27.23;16.38;;;5.00;99.90;;;;;;4972050;28;20038;-81
2022/11/27 02:38:28;;;;;;;26.27;15.93;;;5.00;99.90;;;;;;4972320;28;20038;-81
2022/11/27 02:41:10;;;;;;;23.70;16.58;;;5.00;99.90;;;;;;4972126;28;20466;-82
2022/11/27 02:43:57;;;;;;;23.95;15.35;;;5.20;99.90;;;;;;4972259;28;20039;-81
2022/11/27 02:46:25;;;;;;;28.63;15.82;;;5.50;99.90;;;;;;4972003;28;20391;-81
2022/11/27 02:48:54;;;;;;;24.75;15.43;;;5.10;99.90;;;;;;4971620;28;20065;-81
2022/11/27 02:51:25;;;;;;;25.85;16.40;;;5.10;99.90;;;;;;4971841;28;20035;-82
2022/11/27 02:53:57;;;;;;;25.55;15.68;;;4.90;99.90;;;;;;4971714;28;20089;-81
2022/11/27 02:56:27;;;;;;;24.73;15.73;;;4.80;99.90;;;;;;4971677;28;20117;-81
2022/11/27 02:58:56;;;;;;;24.92;16.00;;;4.70;99.90;;;;;;4971827;28;20163;-81
2022/11/27 03:01:23;;;;;;;24.60;15.75;;;4.90;99.90;;;;;;4981079;28;20386;-81
2022/11/27 03:03:53;;;;;;;26.08;16.17;;;4.70;99.90;;;;;;5030310;28;20094;-81
2022/11/27 03:06:31;;;;;;;23.80;15.00;;;4.70;99.90;;;;;;5039613;28;20028;-81
2022/11/27 03:09:04;;;;;;;21.48;15.52;;;4.60;99.90;;;;;;5072348;28;20032;-81
2022/11/27 03:11:30;;;;;;;23.13;16.05;;;4.70;99.90;;;;;;5072885;28;20104;-81
2022/11/27 03:13:59;;;;;;;28.33;16.40;;;4.60;99.90;;;;;;5072307;28;20151;-81
2022/11/27 03:16:39;;;;;;;23.55;15.00;;;4.50;99.90;;;;;;5072307;28;20024;-81
2022/11/27 03:19:41;;;;;;;22.92;14.90;;;4.40;99.90;;;;;;5054813;28;20040;-81
2022/11/27 03:22:08;;;;;;;22.42;14.50;;;4.30;99.90;;;;;;5052390;28;20090;-81
2022/11/27 03:24:34;;;;;;;24.02;15.38;;;4.30;99.90;;;;;;5050930;28;20037;-81
2022/11/27 03:27:01;;;;;;;23.50;15.38;;;4.30;99.90;;;;;;5052826;28;20027;-81
2022/11/27 03:29:45;;;;;;;22.92;15.35;;;4.40;99.90;;;;;;5050892;28;20040;-81
2022/11/27 03:32:11;;;;;;;24.25;15.10;;;4.40;99.90;;;;;;5052975;28;20041;-80
2022/11/27 03:34:38;;;;;;;25.08;15.95;;;4.30;99.90;;;;;;5072313;28;20040;-81
2022/11/27 03:37:04;;;;;;;26.10;16.25;;;4.50;99.90;;;;;;5071627;28;20074;-81
2022/11/27 03:39:30;;;;;;;24.52;15.18;;;4.50;99.90;;;;;;5070747;28;20044;-81
2022/11/27 03:42:21;;;;;;;26.10;15.07;;;4.50;99.90;;;;;;5072404;28;20435;-81
2022/11/27 03:45:08;;;;;;;23.70;15.95;;;4.40;99.90;;;;;;5072451;28;20028;-81
2022/11/27 03:47:52;;;;;;;26.95;14.75;;;4.30;99.90;;;;;;5072013;28;20017;-81
2022/11/27 03:50:41;;;;;;;22.50;14.93;;;4.30;99.90;;;;;;5071969;28;20484;-81
2022/11/27 03:53:28;;;;;;;25.10;15.35;;;4.30;99.90;;;;;;5071535;28;20054;-81
2022/11/27 03:56:44;;;;;;;26.90;16.50;;;4.30;99.90;;;;;;5071906;28;20029;-81
2022/11/27 03:59:33;;;;;;;25.90;15.63;;;4.20;99.90;;;;;;5029926;28;20053;-81
2022/11/27 04:01:58;;;;;;;24.63;14.23;;;4.20;99.90;;;;;;5029552;28;20080;-82
2022/11/27 04:04:24;;;;;;;24.75;15.30;;;4.10;99.90;;;;;;5030601;28;20068;-81
2022/11/27 04:06:50;;;;;;;28.77;14.98;;;4.20;99.90;;;;;;5030210;28;20113;-82
2022/11/27 04:09:15;;;;;;;35.63;20.85;;;4.30;99.90;;;;;;5029585;28;20033;-82
2022/11/27 04:11:41;;;;;;;36.00;22.83;;;4.30;99.90;;;;;;5029700;28;20036;-81
2022/11/27 04:14:06;;;;;;;41.42;24.38;;;4.50;99.90;;;;;;5030103;28;20025;-81
2022/11/27 04:16:32;;;;;;;34.70;22.40;;;4.50;99.90;;;;;;5029023;28;20037;-81
2022/11/27 04:18:58;;;;;;;32.92;19.33;;;4.60;99.90;;;;;;4996768;28;20041;-81
2022/11/27 04:21:23;;;;;;;29.05;17.90;;;4.70;99.90;;;;;;5009839;28;20528;-81
2022/11/27 04:23:49;;;;;;;30.80;17.90;;;4.80;99.90;;;;;;5009637;28;20037;-81
2022/11/27 04:26:15;;;;;;;31.40;18.30;;;4.80;99.90;;;;;;5009720;28;20457;-81
2022/11/27 04:28:40;;;;;;;28.85;17.38;;;4.80;99.90;;;;;;4993471;28;20041;-81
2022/11/27 04:31:06;;;;;;;32.47;17.73;;;4.80;99.90;;;;;;5009591;28;20401;-81
2022/11/27 04:33:32;;;;;;;30.38;18.25;;;4.80;99.90;;;;;;5021631;28;20049;-81
2022/11/27 04:35:57;;;;;;;32.92;19.20;;;4.80;99.90;;;;;;5050823;28;20122;-81
2022/11/27 04:38:23;;;;;;;34.53;18.35;;;4.80;99.90;;;;;;5071416;28;20025;-81
2022/11/27 04:40:52;;;;;;;28.40;18.70;;;4.90;99.90;;;;;;5071582;28;20115;-81
2022/11/27 04:43:18;;;;;;;29.63;18.67;;;4.90;99.90;;;;;;5071813;28;20024;-81
2022/11/27 04:45:43;;;;;;;28.15;18.33;;;4.80;99.90;;;;;;5070979;28;20486;-81
2022/11/27 04:48:09;;;;;;;29.33;17.65;;;4.80;99.90;;;;;;5072317;28;20508;-81
2022/11/27 04:50:35;;;;;;;30.60;18.45;;;4.90;99.90;;;;;;5075364;28;20074;-81
2022/11/27 04:53:00;;;;;;;30.73;18.98;;;4.70;99.90;;;;;;5074590;28;20047;-81
2022/11/27 04:55:26;;;;;;;29.83;17.83;;;4.70;99.90;;;;;;5075364;28;20056;-81
2022/11/27 04:57:52;;;;;;;30.05;18.08;;;4.70;99.90;;;;;;5074797;28;20480;-81
2022/11/27 05:00:18;;;;;;;29.17;18.08;;;4.50;99.90;;;;;;5074352;28;20470;-81
2022/11/27 05:02:43;;;;;;;28.27;17.35;;;4.50;99.90;;;;;;5073564;28;20048;-81
2022/11/27 05:05:09;;;;;;;27.58;17.30;;;4.30;99.90;;;;;;5075115;28;20044;-81
2022/11/27 05:07:35;;;;;;;27.20;16.02;;;4.30;99.90;;;;;;5074757;28;20542;-82
2022/11/27 05:10:01;;;;;;;29.30;17.23;;;4.10;99.90;;;;;;5074704;28;20059;-82
2022/11/27 05:12:26;;;;;;;29.85;17.10;;;4.10;99.90;;;;;;5075026;28;20025;-81
2022/11/27 05:14:52;;;;;;;30.02;17.85;;;4.10;99.90;;;;;;5074062;28;20021;-81
2022/11/27 05:17:17;;;;;;;27.40;17.38;;;4.10;99.90;;;;;;5071879;28;20024;-81
2022/11/27 05:19:43;;;;;;;26.52;16.48;;;4.10;99.90;;;;;;5054724;28;20527;-81
2022/11/27 05:22:09;;;;;;;26.33;16.90;;;4.10;99.90;;;;;;5054408;28;20025;-81
2022/11/27 05:24:35;;;;;;;26.73;17.20;;;4.10;99.90;;;;;;5054365;28;20091;-81
2022/11/27 05:27:00;;;;;;;26.30;15.98;;;4.10;99.90;;;;;;5054595;28;20063;-81
2022/11/27 05:29:26;;;;;;;27.75;15.88;;;4.00;99.90;;;;;;5054345;28;20025;-81
2022/11/27 05:31:52;;;;;;;24.58;15.45;;;4.00;99.90;;;;;;5054365;28;20528;-81
2022/11/27 05:34:17;;;;;;;25.73;16.00;;;4.00;99.90;;;;;;5072588;28;20053;-81
2022/11/27 05:36:43;;;;;;;26.33;16.20;;;3.90;99.90;;;;;;5074257;28;20028;-81
2022/11/27 05:39:10;;;;;;;25.48;15.90;;;3.90;99.90;;;;;;5074069;28;20382;-81
2022/11/27 05:41:37;;;;;;;24.92;17.10;;;3.90;99.90;;;;;;5074451;28;20028;-81
2022/11/27 05:44:03;;;;;;;25.98;16.65;;;3.90;99.90;;;;;;5074487;28;20027;-81
2022/11/27 05:46:29;;;;;;;26.52;16.67;;;4.00;99.90;;;;;;5073984;28;20070;-81
2022/11/27 05:48:55;;;;;;;28.90;16.98;;;3.90;99.90;;;;;;5074124;28;20032;-81
2022/11/27 05:51:20;;;;;;;25.92;15.95;;;3.90;99.90;;;;;;5073996;28;20090;-81
2022/11/27 05:53:46;;;;;;;26.95;16.70;;;3.90;99.90;;;;;;5074168;28;20024;-81
2022/11/27 05:56:15;;;;;;;25.80;15.95;;;3.90;99.90;;;;;;5073617;28;20058;-81
2022/11/27 05:58:42;;;;;;;26.42;17.08;;;3.80;99.90;;;;;;5073404;28;20070;-81
2022/11/27 06:01:09;;;;;;;23.52;15.70;;;3.80;99.90;;;;;;5074033;28;20036;-81
2022/11/27 06:03:37;;;;;;;24.25;16.08;;;3.80;99.90;;;;;;5074051;28;20028;-81
2022/11/27 06:06:12;;;;;;;25.08;16.23;;;3.70;99.90;;;;;;5072504;28;20024;-81
2022/11/27 06:08:39;;;;;;;23.80;15.88;;;3.80;99.90;;;;;;5073648;28;20037;-82
2022/11/27 06:11:19;;;;;;;24.00;15.13;;;3.80;99.90;;;;;;5073584;28;20026;-81
2022/11/27 06:13:46;;;;;;;23.65;14.18;;;3.80;99.90;;;;;;5073367;28;20040;-81
2022/11/27 06:16:15;;;;;;;25.27;14.73;;;3.80;99.90;;;;;;5073494;28;20079;-81
2022/11/27 06:18:42;;;;;;;23.60;14.68;;;3.80;99.90;;;;;;5059432;28;20029;-81
2022/11/27 06:21:13;;;;;;;23.17;14.10;;;3.80;99.90;;;;;;5053297;28;20036;-81
2022/11/27 06:23:41;;;;;;;23.60;14.10;;;3.90;99.90;;;;;;5053168;28;20025;-81
2022/11/27 06:26:18;;;;;;;20.45;13.93;;;3.80;99.90;;;;;;5052844;28;20551;-81
2022/11/27 06:28:44;;;;;;;25.17;13.75;;;3.80;99.90;;;;;;5053100;28;20053;-81
2022/11/27 06:31:13;;;;;;;18.73;12.60;;;3.80;99.90;;;;;;5053159;28;20489;-81
2022/11/27 06:33:39;;;;;;;20.23;12.60;;;3.80;99.90;;;;;;5065941;28;20044;-81
2022/11/27 06:36:05;;;;;;;18.17;12.57;;;3.80;99.90;;;;;;5073097;28;20078;-81
2022/11/27 06:38:32;;;;;;;18.58;12.65;;;3.90;99.90;;;;;;5073127;28;20028;-81
2022/11/27 06:41:13;;;;;;;18.88;12.73;;;3.90;99.90;;;;;;5072677;28;20028;-81
2022/11/27 06:43:39;;;;;;;17.13;12.05;;;4.00;99.90;;;;;;5072727;28;20048;-80
2022/11/27 06:46:06;;;;;;;19.23;12.82;;;4.00;99.90;;;;;;5073271;28;20052;-81
2022/11/27 06:48:33;;;;;;;18.40;12.38;;;4.10;99.90;;;;;;5072508;28;20028;-81
2022/11/27 06:51:00;;;;;;;18.10;12.10;;;4.10;99.90;;;;;;5073126;28;20063;-81
2022/11/27 06:53:25;;;;;;;17.58;11.55;;;4.20;99.90;;;;;;5072741;28;20025;-81
2022/11/27 06:55:51;;;;;;;14.88;11.32;;;4.30;99.90;;;;;;5072106;28;20035;-81
2022/11/27 06:58:16;;;;;;;15.30;11.30;;;4.30;99.90;;;;;;5072547;28;20097;-81
2022/11/27 07:00:42;;;;;;;18.13;12.02;;;4.40;99.90;;;;;;5072973;28;20036;-82
2022/11/27 07:03:08;;;;;;;17.13;11.82;;;4.50;99.90;;;;;;5072502;28;20044;-81
2022/11/27 07:05:35;;;;;;;15.10;11.10;;;4.60;99.90;;;;;;5072508;28;20031;-81
2022/11/27 07:08:01;;;;;;;16.13;10.55;;;4.70;99.90;;;;;;5072915;28;20035;-81
2022/11/27 07:10:26;;;;;;;17.52;10.27;;;4.80;99.90;;;;;;5071508;28;20021;-81
2022/11/27 07:12:52;;;;;;;14.82;10.32;;;4.90;99.90;;;;;;5072352;28;20476;-81
2022/11/27 07:15:17;;;;;;;15.60;9.98;;;5.00;99.90;;;;;;5072225;28;20021;-82
2022/11/27 07:17:43;;;;;;;15.20;10.23;;;5.20;99.90;;;;;;5066233;28;20070;-81
2022/11/27 07:20:09;;;;;;;13.93;9.63;;;5.30;99.90;;;;;;5051405;28;20310;-81
2022/11/27 07:22:34;;;;;;;13.02;9.70;;;5.40;99.90;;;;;;5051727;28;20453;-81
2022/11/27 07:25:00;;;;;;;12.07;9.68;;;5.50;99.90;;;;;;5052203;28;20067;-82
2022/11/27 07:27:25;;;;;;;13.90;9.40;;;5.70;99.90;;;;;;5052050;28;20033;-81
2022/11/27 07:29:51;;;;;;;13.25;9.30;;;6.00;99.90;;;;;;5052231;28;20048;-81
2022/11/27 07:32:17;;;;;;;11.35;9.15;;;6.40;99.90;;;;;;5054233;28;20090;-81
2022/11/27 07:34:42;;;;;;;10.80;8.30;;;6.90;99.90;;;;;;5072038;28;20032;-82
2022/11/27 07:37:08;;;;;;;12.88;9.20;;;6.90;99.90;;;;;;5072073;28;20392;-81
2022/11/27 07:39:34;;;;;;;10.82;8.50;;;8.30;99.90;;;;;;5072020;28;20123;-81
2022/11/27 07:41:59;;;;;;;11.07;8.02;;;9.30;99.90;;;;;;5072309;28;20129;-81
2022/11/27 07:44:25;;;;;;;10.93;8.00;;;10.60;99.90;;;;;;5072017;28;20055;-82
2022/11/27 07:46:50;;;;;;;11.38;7.45;;;10.90;99.90;;;;;;5053649;28;20481;-81
2022/11/27 07:49:16;;;;;;;8.15;7.00;;;10.30;99.90;;;;;;5052047;28;20030;-82
2022/11/27 07:51:41;;;;;;;9.00;7.28;;;10.20;99.90;;;;;;5051403;28;20075;-82
2022/11/27 07:54:08;;;;;;;11.25;7.63;;;10.20;99.90;;;;;;5050749;28;20055;-81
2022/11/27 07:56:34;;;;;;;11.32;7.95;;;10.00;99.90;;;;;;5051730;28;20041;-82
2022/11/27 07:58:59;;;;;;;11.02;7.13;;;9.20;99.90;;;;;;5051792;28;20025;-82
2022/11/27 08:01:25;;;;;;;8.93;6.68;;;8.90;99.90;;;;;;5051875;28;20400;-82
2022/11/27 08:03:52;;;;;;;11.88;6.95;;;8.70;99.90;;;;;;5052073;28;20052;-82
2022/11/27 08:06:23;;;;;;;8.00;6.63;;;8.70;99.90;;;;;;5051555;28;20025;-82
2022/11/27 08:08:49;;;;;;;7.32;6.32;;;8.60;99.90;;;;;;5051527;28;20028;-82
2022/11/27 08:11:20;;;;;;;7.53;5.25;;;8.80;99.90;;;;;;5051143;28;20025;-83
2022/11/27 08:13:46;;;;;;;7.82;5.43;;;9.20;99.90;;;;;;5050593;28;20483;-82
2022/11/27 08:16:11;;;;;;;7.45;5.07;;;9.80;99.90;;;;;;5051336;28;20108;-82
2022/11/27 08:18:37;;;;;;;7.55;5.20;;;12.10;99.90;;;;;;5051778;28;20485;-82
2022/11/27 08:21:03;;;;;;;6.53;4.80;;;13.60;99.90;;;;;;5051444;28;20025;-83
2022/11/27 08:23:28;;;;;;;5.88;4.90;;;14.50;99.90;;;;;;5051812;28;20384;-82
2022/11/27 08:25:54;;;;;;;6.97;5.22;;;14.30;99.90;;;;;;5055373;28;20545;-84
2022/11/27 08:28:19;;;;;;;6.93;5.07;;;13.60;99.90;;;;;;5053954;28;20021;-83
2022/11/27 08:30:45;;;;;;;8.23;5.07;;;13.80;99.90;;;;;;5054697;28;20439;-84
2022/11/27 08:33:14;;;;;;;7.65;4.63;;;14.30;99.90;;;;;;5065057;28;20127;-84
2022/11/27 08:35:40;;;;;;;5.88;5.05;;;13.30;99.90;;;;;;5062136;28;20401;-83
2022/11/27 08:38:06;;;;;;;6.30;4.70;;;11.60;99.90;;;;;;5055029;28;20040;-83
2022/11/27 08:40:31;;;;;;;7.68;4.85;;;11.00;99.90;;;;;;5055347;28;20060;-83
2022/11/27 08:42:58;;;;;;;6.53;4.60;;;10.80;99.90;;;;;;5055042;28;20025;-83
2022/11/27 08:45:23;;;;;;;7.70;4.57;;;10.90;99.90;;;;;;5055035;28;20033;-83
2022/11/27 08:47:49;;;;;;;6.70;4.65;;;11.00;99.90;;;;;;5055376;28;20085;-82
2022/11/27 08:50:14;;;;;;;5.13;4.57;;;11.40;99.90;;;;;;5054392;28;20025;-84
2022/11/27 08:52:40;;;;;;;6.43;4.25;;;11.80;99.90;;;;;;5054713;28;20025;-82
2022/11/27 08:55:06;;;;;;;6.32;4.43;;;13.50;99.90;;;;;;5054967;28;20032;-83
2022/11/27 08:57:32;;;;;;;5.68;3.72;;;12.50;99.90;;;;;;5055007;28;20025;-84
2022/11/27 08:59:57;;;;;;;6.03;4.18;;;11.70;99.90;;;;;;5054277;28;20101;-83
2022/11/27 09:02:23;;;;;;;5.40;4.18;;;12.70;99.90;;;;;;5054743;28;20521;-82
2022/11/27 09:04:48;;;;;;;6.18;3.92;;;11.70;99.90;;;;;;5054200;28;20025;-83
2022/11/27 09:07:15;;;;;;;4.68;4.07;;;10.40;99.90;;;;;;5054303;28;20025;-83
2022/11/27 09:09:41;;;;;;;5.05;4.13;;;9.80;99.90;;;;;;5054525;28;20035;-82
2022/11/27 09:12:06;;;;;;;5.50;4.30;;;10.10;99.90;;;;;;5054599;28;20444;-82
2022/11/27 09:14:32;;;;;;;5.68;3.85;;;9.60;99.90;;;;;;5054367;28;20480;-81
2022/11/27 09:16:58;;;;;;;5.00;4.00;;;9.90;99.90;;;;;;5054309;28;20111;-76
2022/11/27 09:19:24;;;;;;;5.38;3.92;;;9.70;99.90;;;;;;5054208;28;20037;-85
2022/11/27 09:21:50;;;;;;;5.15;3.65;;;10.00;99.90;;;;;;5054118;28;20111;-82
2022/11/27 09:24:16;;;;;;;5.90;3.70;;;10.20;99.90;;;;;;5053332;28;20556;-81
2022/11/27 09:26:43;;;;;;;6.90;3.97;;;10.30;99.90;;;;;;5054303;28;20543;-82
2022/11/27 09:29:09;;;;;;;7.93;3.80;;;10.30;99.90;;;;;;5053757;28;20025;-82
2022/11/27 09:31:34;;;;;;;4.35;3.50;;;9.60;99.90;;;;;;5053707;28;20036;-83
2022/11/27 09:34:00;;;;;;;4.65;3.30;;;9.60;99.90;;;;;;5069088;28;20463;-83
2022/11/27 09:36:26;;;;;;;5.22;3.53;;;10.10;99.90;;;;;;5055042;28;20057;-82
2022/11/27 09:38:52;;;;;;;6.53;3.97;;;9.40;99.90;;;;;;5054076;28;20029;-84
2022/11/27 09:41:44;;;;;;;5.82;3.90;;;9.50;99.90;;;;;;5053886;28;20033;-83
2022/11/27 09:44:23;;;;;;;5.05;3.92;;;9.50;99.90;;;;;;5054015;28;20086;-83
2022/11/27 09:46:50;;;;;;;7.10;4.22;;;9.40;99.90;;;;;;5053437;28;20032;-83
2022/11/27 09:49:46;;;;;;;5.72;3.55;;;9.50;99.90;;;;;;5053302;28;20040;-83
2022/11/27 09:52:21;;;;;;;7.18;3.90;;;9.80;99.90;;;;;;5052945;28;20123;-83
2022/11/27 09:55:16;;;;;;;7.05;4.13;;;9.60;99.90;;;;;;5053413;28;20044;-83
2022/11/27 09:57:49;;;;;;;7.63;4.40;;;9.80;99.90;;;;;;5052623;28;20409;-83
2022/11/27 10:00:18;;;;;;;5.18;3.90;;;10.10;99.90;;;;;;5053676;28;20048;-83
2022/11/27 10:02:44;;;;;;;4.63;4.03;;;10.20;99.90;;;;;;5052807;28;20029;-82
2022/11/27 10:05:24;;;;;;;5.50;4.18;;;10.40;99.90;;;;;;5052566;28;20039;-83
2022/11/27 10:08:08;;;;;;;5.28;3.88;;;10.70;99.90;;;;;;5052273;28;20493;-84
2022/11/27 10:11:00;;;;;;;7.38;4.13;;;10.40;99.90;;;;;;5052423;28;20028;-83
2022/11/27 10:14:01;;;;;;;7.28;4.32;;;10.80;99.90;;;;;;5033615;28;20034;-83
2022/11/27 10:16:41;;;;;;;5.97;4.22;;;10.80;99.90;;;;;;5033519;28;20478;-84
2022/11/27 10:19:29;;;;;;;6.15;4.15;;;14.80;99.90;;;;;;5050263;28;20425;-83
2022/11/27 10:22:08;;;;;;;6.65;4.45;;;18.20;99.90;;;;;;5052674;28;20375;-83
2022/11/27 10:25:01;;;;;;;5.55;4.28;;;19.50;99.90;;;;;;5053177;28;20083;-85
2022/11/27 10:27:37;;;;;;;5.68;4.35;;;19.70;99.90;;;;;;5052762;28;20326;-84
2022/11/27 10:30:12;;;;;;;5.22;4.03;;;20.90;99.90;;;;;;5052553;28;20029;-84
2022/11/27 10:32:38;;;;;;;6.25;4.57;;;21.10;99.90;;;;;;5057282;28;20048;-82
2022/11/27 10:35:08;;;;;;;4.85;4.22;;;19.90;99.90;;;;;;5054526;28;20078;-83
2022/11/27 10:37:42;;;;;;;6.80;4.63;;;20.70;99.90;;;;;;5052134;28;20021;-83
2022/11/27 10:40:38;;;;;;;5.25;4.40;;;20.90;99.90;;;;;;5052959;28;20124;-82
2022/11/27 10:43:11;;;;;;;6.60;4.68;;;20.80;99.90;;;;;;5052546;28;20102;-84
2022/11/27 10:45:36;;;;;;;6.80;4.47;;;21.00;99.90;;;;;;5051374;28;20037;-83
2022/11/27 10:48:02;;;;;;;5.82;4.40;;;21.30;99.90;;;;;;5052114;28;20396;-83
2022/11/27 10:50:27;;;;;;;9.63;4.43;;;19.40;99.90;;;;;;5052374;28;20025;-84
2022/11/27 10:53:03;;;;;;;6.05;4.30;;;18.20;99.90;;;;;;5052953;28;20419;-83
2022/11/27 10:55:41;;;;;;;6.32;4.80;;;17.10;99.90;;;;;;5052937;28;20555;-84
2022/11/27 10:58:30;;;;;;;8.88;5.35;;;18.00;99.90;;;;;;5052271;28;20032;-82
2022/11/27 11:01:03;;;;;;;6.30;5.30;;;18.10;99.90;;;;;;5051922;28;20048;-82
2022/11/27 11:03:29;;;;;;;6.15;4.97;;;17.30;99.90;;;;;;5052463;28;20051;-82
2022/11/27 11:06:04;;;;;;;7.28;4.93;;;16.00;99.90;;;;;;5051853;28;20029;-84
2022/11/27 11:08:31;;;;;;;9.15;6.88;;;16.50;99.90;;;;;;5052575;28;20040;-84
2022/11/27 11:10:56;;;;;;;7.47;5.57;;;15.70;99.90;;;;;;5050949;28;20037;-84
2022/11/27 11:13:27;;;;;;;6.57;4.93;;;15.50;99.90;;;;;;5051820;28;20079;-82
2022/11/27 11:15:59;;;;;;;6.05;4.90;;;15.10;99.90;;;;;;5051594;28;20086;-83
2022/11/27 11:18:33;;;;;;;6.35;5.10;;;16.60;99.90;;;;;;5051620;28;20523;-83
2022/11/27 11:21:02;;;;;;;5.30;4.53;;;18.60;99.90;;;;;;5052455;28;20041;-83
2022/11/27 11:23:39;;;;;;;6.38;4.53;;;19.20;99.90;;;;;;5051566;28;20067;-84
2022/11/27 11:26:14;;;;;;;4.40;3.80;;;18.80;99.90;;;;;;5052167;28;20116;-83
2022/11/27 11:28:55;;;;;;;6.35;4.68;;;18.90;99.90;;;;;;5052117;28;20081;-81
2022/11/27 11:31:31;;;;;;;6.82;4.63;;;17.90;99.90;;;;;;5050966;28;20017;-81
2022/11/27 11:34:01;;;;;;;5.75;4.25;;;19.50;99.90;;;;;;5054952;28;20128;-83
2022/11/27 11:36:27;;;;;;;10.43;6.82;;;18.80;99.90;;;;;;5051637;28;20071;-82
2022/11/27 11:38:53;;;;;;;5.18;4.30;;;19.70;99.90;;;;;;5055536;28;20061;-82
2022/11/27 11:41:20;;;;;;;6.15;4.35;;;18.30;99.90;;;;;;5052002;28;20025;-82
2022/11/27 11:44:01;;;;;;;5.40;4.20;;;16.80;99.90;;;;;;5050260;28;20021;-84
2022/11/27 11:46:30;;;;;;;5.43;3.70;;;16.60;99.90;;;;;;5050752;28;20036;-86
2022/11/27 11:49:06;;;;;;;4.50;3.92;;;17.00;99.90;;;;;;5052169;28;20460;-82
2022/11/27 11:51:31;;;;;;;4.47;4.00;;;17.40;99.90;;;;;;5049921;28;20025;-82
2022/11/27 11:54:27;;;;;;;5.05;3.40;;;17.60;99.90;;;;;;5051652;28;20029;-82
2022/11/27 11:56:58;;;;;;;4.93;3.83;;;16.10;99.90;;;;;;5052346;28;20354;-82
2022/11/27 11:59:26;;;;;;;4.10;3.40;;;15.50;99.90;;;;;;5055383;28;20037;-82
2022/11/27 12:02:00;;;;;;;5.57;3.55;;;15.60;99.90;;;;;;5055833;28;20370;-82
2022/11/27 12:04:35;;;;;;;4.60;3.22;;;15.60;99.90;;;;;;5056084;28;20047;-82
2022/11/27 12:07:00;;;;;;;3.53;3.10;;;15.20;99.90;;;;;;5055687;28;20413;-82
2022/11/27 12:09:56;;;;;;;4.32;3.28;;;14.50;99.90;;;;;;5055548;28;20025;-82
2022/11/27 12:13:14;;;;;;;6.30;3.83;;;14.30;99.90;;;;;;5055631;28;20515;-82
2022/11/27 12:15:46;;;;;;;5.60;3.20;;;14.30;99.90;;;;;;4955431;28;20042;-82
2022/11/27 12:18:28;;;;;;;6.03;3.17;;;14.20;99.90;;;;;;4955288;29;20031;-82
2022/11/27 12:21:16;;;;;;;4.28;2.75;;;14.10;99.90;;;;;;4954562;29;20058;-82
2022/11/27 12:23:44;;;;;;;3.83;2.78;;;14.10;99.90;;;;;;4955106;29;20563;-82
2022/11/27 12:26:16;;;;;;;3.47;2.92;;;14.00;99.90;;;;;;4955228;28;20046;-82
2022/11/27 12:29:06;;;;;;;3.83;2.70;;;14.10;99.90;;;;;;4954493;29;20035;-82
2022/11/27 12:31:56;;;;;;;3.40;2.20;;;14.00;99.90;;;;;;4954883;28;20172;-82
2022/11/27 12:34:31;;;;;;;3.10;2.03;;;14.10;99.90;;;;;;4973218;28;20105;-82
2022/11/27 12:37:21;;;;;;;4.72;2.10;;;14.20;99.90;;;;;;4970654;28;20039;-82
2022/11/27 12:40:01;;;;;;;3.28;2.17;;;14.10;99.90;;;;;;4954629;29;20051;-82
2022/11/27 12:43:04;;;;;;;2.45;1.70;;;14.30;99.90;;;;;;4954617;29;20039;-81
2022/11/27 12:45:37;;;;;;;2.45;1.83;;;13.90;99.90;;;;;;4916367;29;20472;-81
2022/11/27 12:48:11;;;;;;;3.45;1.70;;;13.90;99.90;;;;;;4920159;29;20114;-82
2022/11/27 12:50:49;;;;;;;2.30;1.80;;;14.00;99.90;;;;;;4916413;29;20040;-82
2022/11/27 12:53:48;;;;;;;2.75;2.10;;;14.10;99.90;;;;;;4979134;28;20177;-83
2022/11/27 12:56:29;;;;;;;2.95;1.80;;;14.10;99.90;;;;;;4954735;28;20070;-82
2022/11/27 12:59:32;;;;;;;3.70;1.90;;;14.00;99.90;;;;;;4954233;28;20102;-82